createdAt,value
2022-08-28T00:02:01.332Z,22.40
2022-08-28T00:07:23.029Z,23.55
2022-08-28T00:12:47.550Z,22.02
2022-08-28T00:18:09.300Z,21.25
2022-08-28T00:23:42.473Z,21.98
2022-08-28T00:29:06.094Z,18.80
2022-08-28T00:34:32.930Z,20.00
2022-08-28T00:39:55.442Z,18.48
2022-08-28T00:45:19.828Z,18.85
2022-08-28T00:51:01.000Z,19.15
2022-08-28T00:56:22.826Z,18.88
2022-08-28T01:01:46.132Z,19.65
2022-08-28T01:07:10.646Z,19.27
2022-08-28T01:12:33.590Z,19.40
2022-08-28T01:18:04.688Z,20.10
2022-08-28T01:23:42.362Z,20.50
2022-08-28T01:29:04.317Z,20.85
2022-08-28T01:34:26.382Z,21.30
2022-08-28T01:39:48.171Z,22.08
2022-08-28T01:45:15.853Z,20.98
2022-08-28T01:50:38.086Z,21.35
2022-08-28T01:56:04.669Z,20.70
2022-08-28T02:01:26.600Z,20.92
2022-08-28T02:06:48.337Z,21.30
2022-08-28T02:12:10.159Z,20.85
2022-08-28T02:17:32.950Z,20.48
2022-08-28T02:22:55.901Z,21.92
2022-08-28T02:28:17.615Z,19.35
2022-08-28T02:33:42.984Z,21.52
2022-08-28T02:39:04.704Z,21.77
2022-08-28T02:44:26.421Z,21.70
2022-08-28T02:49:48.182Z,22.05
2022-08-28T02:55:12.572Z,22.42
2022-08-28T03:00:34.342Z,23.25
2022-08-28T03:05:56.049Z,24.10
2022-08-28T03:11:17.802Z,21.83
2022-08-28T03:16:40.030Z,22.42
2022-08-28T03:22:01.808Z,22.05
2022-08-28T03:27:23.538Z,22.65
2022-08-28T03:32:45.284Z,23.40
2022-08-28T03:38:07.080Z,22.08
2022-08-28T03:43:29.013Z,22.63
2022-08-28T03:48:52.517Z,23.52
2022-08-28T03:54:14.659Z,22.70
2022-08-28T03:59:36.452Z,22.67
2022-08-28T04:04:58.274Z,22.25
2022-08-28T04:10:20.010Z,21.05
2022-08-28T04:15:42.147Z,22.17
2022-08-28T04:21:10.489Z,22.60
2022-08-28T04:26:36.498Z,22.17
2022-08-28T04:31:58.323Z,20.80
2022-08-28T04:37:20.114Z,19.92
2022-08-28T04:42:45.083Z,20.33
2022-08-28T04:48:13.214Z,20.42
2022-08-28T04:53:37.344Z,19.95
2022-08-28T04:59:01.439Z,20.02
2022-08-28T05:04:23.268Z,20.02
2022-08-28T05:09:45.288Z,20.65
2022-08-28T05:15:07.612Z,20.42
2022-08-28T05:20:34.996Z,20.20
2022-08-28T05:25:57.670Z,22.83
2022-08-28T05:31:21.996Z,21.48
2022-08-28T05:36:43.809Z,19.80
2022-08-28T05:42:05.739Z,19.15
2022-08-28T05:47:32.548Z,20.02
2022-08-28T05:52:54.275Z,19.48
2022-08-28T05:58:31.813Z,19.98
2022-08-28T06:03:58.070Z,18.55
2022-08-28T06:09:28.745Z,19.88
2022-08-28T06:14:51.038Z,18.88
2022-08-28T06:20:12.774Z,16.95
2022-08-28T06:25:45.004Z,17.15
2022-08-28T06:31:24.492Z,16.85
2022-08-28T06:36:53.124Z,16.60
2022-08-28T06:42:15.823Z,15.95
2022-08-28T06:47:37.545Z,14.32
2022-08-28T06:53:00.008Z,13.77
2022-08-28T06:58:21.705Z,14.57
2022-08-28T07:03:45.306Z,13.82
2022-08-28T07:09:09.483Z,13.68
2022-08-28T07:14:31.180Z,12.52
2022-08-28T07:19:52.954Z,12.95
2022-08-28T07:25:14.679Z,13.32
2022-08-28T07:30:36.393Z,13.02
2022-08-28T07:35:59.256Z,12.98
2022-08-28T07:41:24.125Z,14.02
2022-08-28T07:46:46.087Z,12.80
2022-08-28T07:52:09.128Z,12.77
2022-08-28T07:57:32.053Z,13.43
2022-08-28T08:02:53.792Z,13.75
2022-08-28T08:08:15.519Z,14.10
2022-08-28T08:13:39.715Z,13.10
2022-08-28T08:19:02.296Z,13.73
2022-08-28T08:24:26.426Z,13.32
2022-08-28T08:29:49.020Z,14.60
2022-08-28T08:35:12.774Z,14.30
2022-08-28T08:40:35.573Z,14.05
2022-08-28T08:45:57.556Z,13.15
2022-08-28T08:51:26.889Z,11.68
2022-08-28T08:56:49.369Z,14.05
2022-08-28T09:02:18.092Z,11.93
2022-08-28T09:07:53.301Z,13.18
2022-08-28T09:13:26.404Z,11.80
2022-08-28T09:18:49.227Z,11.10
2022-08-28T09:24:24.722Z,13.18
2022-08-28T09:30:14.826Z,11.45
2022-08-28T09:35:37.755Z,11.20
2022-08-28T09:41:28.078Z,10.45
2022-08-28T09:46:51.438Z,11.30
2022-08-28T09:52:25.010Z,10.40
2022-08-28T09:57:48.262Z,10.68
2022-08-28T10:03:28.449Z,10.98
2022-08-28T10:09:02.637Z,10.60
2022-08-28T10:15:00.881Z,8.98
2022-08-28T10:20:49.821Z,9.68
2022-08-28T10:26:27.575Z,9.85
2022-08-28T10:32:11.200Z,8.98
2022-08-28T10:37:45.504Z,7.95
2022-08-28T10:43:11.957Z,8.43
2022-08-28T10:48:41.169Z,7.82
2022-08-28T10:54:40.989Z,7.82
2022-08-28T11:00:12.166Z,7.80
2022-08-28T11:06:11.494Z,6.90
2022-08-28T11:11:44.004Z,8.00
2022-08-28T11:17:11.001Z,8.13
2022-08-28T11:22:44.536Z,6.97
2022-08-28T11:28:40.248Z,7.68
2022-08-28T11:34:02.791Z,7.13
2022-08-28T11:39:24.589Z,7.05
2022-08-28T11:44:46.497Z,7.28
2022-08-28T11:50:15.923Z,7.20
2022-08-28T11:55:50.371Z,6.88
2022-08-28T12:01:14.291Z,6.93
2022-08-28T12:06:45.156Z,6.15
2022-08-28T12:12:45.453Z,5.75
2022-08-28T12:18:10.670Z,6.70
2022-08-28T12:23:36.588Z,6.15
2022-08-28T12:29:00.597Z,6.35
2022-08-28T12:34:40.681Z,6.53
2022-08-28T12:40:37.672Z,6.47
2022-08-28T12:46:04.082Z,5.93
2022-08-28T12:51:27.555Z,5.57
2022-08-28T12:56:49.264Z,5.85
2022-08-28T13:02:11.132Z,6.13
2022-08-28T13:07:55.142Z,5.80
2022-08-28T13:13:24.193Z,6.05
2022-08-28T13:18:55.447Z,5.45
2022-08-28T13:24:24.067Z,4.82
2022-08-28T13:30:00.655Z,5.75
2022-08-28T13:35:22.893Z,5.07
2022-08-28T13:40:57.820Z,4.72
2022-08-28T13:46:20.462Z,5.10
2022-08-28T13:51:42.511Z,5.18
2022-08-28T13:57:04.466Z,4.95
2022-08-28T14:02:45.471Z,4.90
2022-08-28T14:08:07.243Z,4.82
2022-08-28T14:13:29.244Z,4.93
2022-08-28T14:18:52.798Z,5.05
2022-08-28T14:24:14.873Z,4.60
2022-08-28T14:29:38.169Z,4.95
2022-08-28T14:34:59.952Z,4.72
2022-08-28T14:40:21.729Z,4.45
2022-08-28T14:45:50.227Z,4.03
2022-08-28T14:51:12.269Z,4.63
2022-08-28T14:56:34.826Z,4.47
2022-08-28T15:01:59.991Z,4.50
2022-08-28T15:07:22.686Z,4.68
2022-08-28T15:12:44.424Z,4.68
2022-08-28T15:18:07.026Z,5.93
2022-08-28T15:23:29.560Z,4.50
2022-08-28T15:28:55.390Z,4.70
2022-08-28T15:34:26.213Z,4.47
2022-08-28T15:40:06.550Z,4.07
2022-08-28T15:45:28.454Z,4.72
2022-08-28T15:50:50.256Z,4.13
2022-08-28T15:56:18.168Z,4.80
2022-08-28T16:01:40.466Z,4.35
2022-08-28T16:07:02.396Z,4.20
2022-08-28T16:12:25.435Z,7.82
2022-08-28T16:17:47.208Z,4.32
2022-08-28T16:23:10.494Z,4.35
2022-08-28T16:28:32.698Z,4.07
2022-08-28T16:33:54.645Z,3.88
2022-08-28T16:39:16.389Z,4.15
2022-08-28T16:44:38.096Z,4.00
2022-08-28T16:50:01.764Z,4.40
2022-08-28T16:55:23.470Z,4.25
2022-08-28T17:00:52.420Z,4.82
2022-08-28T17:06:18.425Z,4.43
2022-08-28T17:11:40.186Z,4.18
2022-08-28T17:17:01.987Z,4.20
2022-08-28T17:22:32.560Z,4.45
2022-08-28T17:27:54.493Z,4.28
2022-08-28T17:33:16.191Z,3.97
2022-08-28T17:38:38.480Z,4.45
2022-08-28T17:44:01.512Z,3.60
2022-08-28T17:49:24.580Z,4.15
2022-08-28T17:54:46.348Z,4.35
2022-08-28T18:00:11.470Z,4.15
2022-08-28T18:05:34.178Z,4.80
2022-08-28T18:10:55.895Z,6.07
2022-08-28T18:16:18.526Z,7.45
2022-08-28T18:21:41.010Z,5.65
2022-08-28T18:27:03.142Z,5.35
2022-08-28T18:32:25.020Z,4.95
2022-08-28T18:37:46.818Z,5.65
2022-08-28T18:43:13.705Z,4.80
2022-08-28T18:48:36.316Z,4.65
2022-08-28T18:54:00.881Z,3.88
2022-08-28T18:59:23.850Z,4.10
2022-08-28T19:04:45.622Z,4.05
2022-08-28T19:10:22.759Z,3.97
2022-08-28T19:15:52.524Z,5.00
2022-08-28T19:21:19.569Z,5.20
2022-08-28T19:26:41.296Z,5.22
2022-08-28T19:32:04.168Z,5.20
2022-08-28T19:37:26.316Z,4.30
2022-08-28T19:42:49.733Z,4.60
2022-08-28T19:48:12.095Z,5.18
2022-08-28T19:53:34.077Z,6.07
2022-08-28T19:58:59.031Z,5.90
2022-08-28T20:04:20.894Z,5.30
2022-08-28T20:09:42.699Z,5.65
2022-08-28T20:15:07.408Z,5.03
2022-08-28T20:20:30.235Z,5.32
2022-08-28T20:25:52.024Z,5.53
2022-08-28T20:31:16.938Z,5.55
2022-08-28T20:36:38.967Z,5.57
2022-08-28T20:42:00.784Z,5.50
2022-08-28T20:47:22.638Z,5.78
2022-08-28T20:52:45.603Z,5.75
2022-08-28T20:58:07.470Z,5.60
2022-08-28T21:03:29.176Z,7.63
2022-08-28T21:08:50.926Z,8.00
2022-08-28T21:14:13.269Z,5.60
2022-08-28T21:19:40.136Z,6.18
2022-08-28T21:25:07.158Z,6.47
2022-08-28T21:30:29.895Z,6.43
2022-08-28T21:35:51.717Z,6.18
2022-08-28T21:41:14.363Z,6.43
2022-08-28T21:46:36.069Z,6.43
2022-08-28T21:52:01.157Z,6.22
2022-08-28T21:57:22.907Z,6.70
2022-08-28T22:02:44.805Z,6.55
2022-08-28T22:08:07.277Z,6.03
2022-08-28T22:13:29.109Z,7.35
2022-08-28T22:18:51.260Z,6.22
2022-08-28T22:24:13.389Z,6.55
2022-08-28T22:29:36.572Z,6.07
2022-08-28T22:34:58.335Z,6.57
2022-08-28T22:40:21.668Z,6.40
2022-08-28T22:45:46.350Z,6.20
2022-08-28T22:51:12.546Z,6.22
2022-08-28T22:56:34.263Z,6.20
2022-08-28T23:01:58.735Z,6.50
2022-08-28T23:07:20.539Z,6.03
2022-08-28T23:12:42.749Z,5.80
2022-08-28T23:18:04.593Z,5.93
2022-08-28T23:23:26.348Z,6.03
2022-08-28T23:28:48.186Z,5.75
2022-08-28T23:34:10.082Z,6.63
2022-08-28T23:39:32.622Z,6.72
2022-08-28T23:44:55.004Z,6.95
2022-08-28T23:50:20.881Z,7.03
2022-08-28T23:55:42.786Z,7.13
